Wetterdaten: Woche 22.08.16 - 28.08.16 (KW34)
Datum Zeit Temp. A. Feuchte A. Luftdruck Regen Wind Richtung Sonnenschein ET UV Solar Taupunkt Windchill Windben Empfang
22.08.2016 00:00 14,5 C 86 % 1022,3 hPa 0,0 l/m 4,8 km/h (1 Bft) W 0,00 h 0,000 mm 0,0 UV-I 0 W/m 12,2 C 14,4 C 7,9 km/h (2 Bft) 99,49 %
22.08.2016 01:00 14,1 C 88 % 1022,7 hPa 0,0 l/m 4,3 km/h (1 Bft) W 0,00 h 0,000 mm 0,0 UV-I 0 W/m 12,1 C 14,0 C 6,7 km/h (2 Bft) 97,72 %
22.08.2016 02:00 13,9 C 86 % 1022,9 hPa 0,0 l/m 10,9 km/h (2 Bft) SW 0,00 h 0,000 mm 0,0 UV-I 0 W/m 11,5 C 11,5 C 16,6 km/h (3 Bft) 99,58 %
22.08.2016 03:00 13,3 C 87 % 1023,6 hPa 0,0 l/m 9,2 km/h (2 Bft) W-SW 0,00 h 0,025 mm 0,0 UV-I 0 W/m 11,2 C 11,6 C 14,6 km/h (3 Bft) 98,43 %
22.08.2016 04:00 13,1 C 88 % 1023,9 hPa 0,0 l/m 10,1 km/h (2 Bft) W-SW 0,00 h 0,026 mm 0,0 UV-I 0 W/m 11,1 C 10,9 C 15,8 km/h (3 Bft) 99,59 %
22.08.2016 05:00 12,7 C 89 % 1024,2 hPa 0,0 l/m 9,9 km/h (2 Bft) W-SW 0,00 h 0,025 mm 0,0 UV-I 0 W/m 11,0 C 10,6 C 15,6 km/h (3 Bft) 97,96 %
22.08.2016 06:00 12,6 C 89 % 1024,8 hPa 0,0 l/m 8,1 km/h (2 Bft) W-SW 0,00 h 0,026 mm 0,0 UV-I 8 W/m 10,8 C 11,4 C 12,9 km/h (3 Bft) 99,43 %
22.08.2016 07:00 12,8 C 88 % 1025,6 hPa 0,0 l/m 7,0 km/h (2 Bft) W-SW 0,00 h 0,025 mm 0,0 UV-I 48 W/m 11,0 C 12,4 C 11,4 km/h (2 Bft) 98,11 %
22.08.2016 08:00 14,0 C 85 % 1026,0 hPa 0,0 l/m 9,2 km/h (2 Bft) W-SW 0,00 h 0,025 mm 0,6 UV-I 136 W/m 11,4 C 12,4 C 15,5 km/h (3 Bft) 99,43 %
22.08.2016 09:00 15,4 C 80 % 1026,2 hPa 0,0 l/m 9,0 km/h (2 Bft) W-SW 0,27 h 0,102 mm 1,1 UV-I 263 W/m 11,9 C 14,0 C 15,5 km/h (3 Bft) 97,95 %
22.08.2016 10:00 15,6 C 81 % 1026,5 hPa 0,0 l/m 4,9 km/h (1 Bft) W 0,00 h 0,152 mm 0,9 UV-I 158 W/m 12,3 C 15,6 C 10,0 km/h (2 Bft) 99,15 %
22.08.2016 11:00 16,5 C 79 % 1026,6 hPa 0,0 l/m 6,7 km/h (2 Bft) W-SW 0,23 h 0,102 mm 2,2 UV-I 334 W/m 12,9 C 16,0 C 13,4 km/h (3 Bft) 98,41 %
22.08.2016 12:00 17,8 C 75 % 1026,4 hPa 0,0 l/m 12,4 km/h (3 Bft) W-SW 0,87 h 0,203 mm 4,6 UV-I 747 W/m 13,3 C 15,5 C 20,4 km/h (4 Bft) 99,38 %
22.08.2016 13:00 18,6 C 72 % 1026,2 hPa 0,0 l/m 11,6 km/h (2 Bft) W-SW 0,60 h 0,432 mm 4,2 UV-I 650 W/m 13,5 C 16,6 C 19,7 km/h (3 Bft) 98,31 %
22.08.2016 14:00 19,5 C 69 % 1025,9 hPa 0,0 l/m 10,3 km/h (2 Bft) W-SW 0,57 h 0,406 mm 3,7 UV-I 556 W/m 13,5 C 18,0 C 18,0 km/h (3 Bft) 99,15 %
22.08.2016 15:00 19,2 C 66 % 1025,8 hPa 0,0 l/m 14,0 km/h (3 Bft) W-SW 0,17 h 0,381 mm 2,5 UV-I 375 W/m 12,8 C 16,6 C 22,6 km/h (4 Bft) 98,87 %
22.08.2016 16:00 19,7 C 67 % 1025,9 hPa 0,0 l/m 9,5 km/h (2 Bft) W-SW 0,70 h 0,280 mm 1,6 UV-I 378 W/m 13,3 C 18,5 C 16,6 km/h (3 Bft) 98,35 %
22.08.2016 17:00 19,4 C 66 % 1026,1 hPa 0,0 l/m 9,7 km/h (2 Bft) W-SW 0,10 h 0,254 mm 0,8 UV-I 200 W/m 12,9 C 18,2 C 16,5 km/h (3 Bft) 99,13 %
22.08.2016 18:00 18,9 C 68 % 1026,4 hPa 0,0 l/m 7,0 km/h (2 Bft) SW 0,07 h 0,152 mm 0,5 UV-I 106 W/m 12,8 C 18,6 C 11,9 km/h (2 Bft) 98,51 %
22.08.2016 19:00 18,2 C 71 % 1026,6 hPa 0,0 l/m 5,3 km/h (1 Bft) S 0,23 h 0,102 mm 0,0 UV-I 40 W/m 12,9 C 18,2 C 8,6 km/h (2 Bft) 98,96 %
22.08.2016 20:00 16,6 C 79 % 1027,1 hPa 0,0 l/m 3,6 km/h (1 Bft) S 0,00 h 0,051 mm 0,0 UV-I 5 W/m 12,9 C 16,6 C 6,0 km/h (2 Bft) 98,50 %
22.08.2016 21:00 16,0 C 80 % 1027,7 hPa 0,0 l/m 5,6 km/h (1 Bft) S 0,00 h 0,025 mm 0,0 UV-I 0 W/m 12,6 C 15,9 C 8,5 km/h (2 Bft) 99,19 %
22.08.2016 22:00 15,4 C 81 % 1027,7 hPa 0,0 l/m 6,1 km/h (2 Bft) S-SW 0,00 h 0,025 mm 0,0 UV-I 0 W/m 12,3 C 15,4 C 9,2 km/h (2 Bft) 98,04 %
22.08.2016 23:00 14,5 C 85 % 1027,6 hPa 0,0 l/m 5,6 km/h (1 Bft) S 0,00 h 0,026 mm 0,0 UV-I 0 W/m 12,0 C 14,4 C 8,0 km/h (2 Bft) 99,22 %
23.08.2016 00:00 13,7 C 88 % 1027,6 hPa 0,0 l/m 5,3 km/h (1 Bft) S-SW 0,00 h 0,000 mm 0,0 UV-I 0 W/m 11,7 C 13,6 C 7,8 km/h (2 Bft) 98,58 %
23.08.2016 01:00 13,4 C 89 % 1027,6 hPa 0,0 l/m 5,3 km/h (1 Bft) S-SW 0,00 h 0,000 mm 0,0 UV-I 0 W/m 11,6 C 13,4 C 7,9 km/h (2 Bft) 98,53 %
23.08.2016 02:00 13,0 C 90 % 1027,4 hPa 0,0 l/m 4,8 km/h (1 Bft) S-SW 0,00 h 0,000 mm 0,0 UV-I 0 W/m 11,4 C 13,0 C 7,0 km/h (2 Bft) 98,60 %
23.08.2016 03:00 12,2 C 92 % 1027,4 hPa 0,0 l/m 2,1 km/h (1 Bft) S-SW 0,00 h 0,000 mm 0,0 UV-I 0 W/m 10,9 C 12,2 C 3,5 km/h (1 Bft) 98,87 %
23.08.2016 04:00 11,7 C 93 % 1027,2 hPa 0,0 l/m 2,3 km/h (1 Bft) S 0,00 h 0,000 mm 0,0 UV-I 0 W/m 10,7 C 11,7 C 4,1 km/h (1 Bft) 98,27 %
23.08.2016 05:00 11,6 C 94 % 1027,4 hPa 0,0 l/m 2,2 km/h (1 Bft) S-SW 0,00 h 0,000 mm 0,0 UV-I 0 W/m 10,6 C 11,6 C 3,7 km/h (1 Bft) 98,92 %
23.08.2016 06:00 11,8 C 94 % 1027,6 hPa 0,0 l/m 3,0 km/h (1 Bft) S-SW 0,03 h 0,000 mm 0,0 UV-I 15 W/m 10,8 C 11,8 C 4,9 km/h (1 Bft) 98,79 %
23.08.2016 07:00 13,2 C 91 % 1028,1 hPa 0,0 l/m 2,5 km/h (1 Bft) S 0,60 h 0,000 mm 0,0 UV-I 117 W/m 11,8 C 13,2 C 4,6 km/h (1 Bft) 98,44 %
23.08.2016 08:00 14,4 C 89 % 1028,3 hPa 0,0 l/m 3,3 km/h (1 Bft) S-SW 0,00 h 0,051 mm 0,7 UV-I 131 W/m 12,5 C 14,4 C 5,3 km/h (1 Bft) 98,88 %
23.08.2016 09:00 16,2 C 83 % 1028,4 hPa 0,0 l/m 5,3 km/h (1 Bft) S-SW 0,53 h 0,076 mm 1,8 UV-I 363 W/m 13,2 C 16,1 C 9,0 km/h (2 Bft) 98,81 %
23.08.2016 10:00 18,8 C 71 % 1028,2 hPa 0,0 l/m 5,4 km/h (1 Bft) S 1,00 h 0,203 mm 3,5 UV-I 602 W/m 13,3 C 18,6 C 9,8 km/h (2 Bft) 98,79 %
23.08.2016 11:00 20,5 C 64 % 1027,8 hPa 0,0 l/m 5,8 km/h (2 Bft) W-SW 1,00 h 0,356 mm 4,7 UV-I 705 W/m 13,4 C 20,2 C 10,7 km/h (2 Bft) 98,58 %
23.08.2016 12:00 21,7 C 61 % 1027,3 hPa 0,0 l/m 5,7 km/h (1 Bft) W 1,00 h 0,432 mm 5,8 UV-I 764 W/m 13,9 C 21,5 C 10,9 km/h (2 Bft) 98,17 %
23.08.2016 13:00 22,9 C 58 % 1026,7 hPa 0,0 l/m 6,1 km/h (2 Bft) SW 1,00 h 0,482 mm 6,0 UV-I 847 W/m 14,2 C 22,6 C 11,5 km/h (2 Bft) 98,70 %
23.08.2016 14:00 23,4 C 56 % 1026,3 hPa 0,0 l/m 4,8 km/h (1 Bft) W-SW 0,93 h 0,534 mm 5,0 UV-I 756 W/m 14,1 C 23,4 C 9,3 km/h (2 Bft) 98,79 %
23.08.2016 15:00 24,0 C 54 % 1025,9 hPa 0,0 l/m 3,7 km/h (1 Bft) W-SW 0,97 h 0,482 mm 3,8 UV-I 652 W/m 14,2 C 24,0 C 7,5 km/h (2 Bft) 98,31 %
23.08.2016 16:00 24,2 C 53 % 1025,4 hPa 0,0 l/m 3,2 km/h (1 Bft) W-SW 1,00 h 0,432 mm 2,5 UV-I 520 W/m 14,1 C 24,2 C 6,8 km/h (2 Bft) 98,07 %
23.08.2016 17:00 24,2 C 52 % 1025,0 hPa 0,0 l/m 2,6 km/h (1 Bft) W 1,00 h 0,356 mm 1,2 UV-I 359 W/m 13,9 C 24,2 C 4,9 km/h (1 Bft) 98,48 %
23.08.2016 18:00 23,9 C 55 % 1024,9 hPa 0,0 l/m 1,6 km/h (1 Bft) N-NO 1,00 h 0,254 mm 0,6 UV-I 178 W/m 14,3 C 23,9 C 3,7 km/h (1 Bft) 98,08 %
23.08.2016 19:00 22,1 C 66 % 1024,9 hPa 0,0 l/m 1,0 km/h (0 Bft) N 0,13 h 0,127 mm 0,0 UV-I 35 W/m 15,4 C 22,1 C 2,4 km/h (1 Bft) 99,07 %
23.08.2016 20:00 19,1 C 79 % 1025,1 hPa 0,0 l/m 0,0 km/h (0 Bft) N 0,00 h 0,025 mm 0,0 UV-I 5 W/m 15,3 C 19,1 C 0,0 km/h (0 Bft) 97,95 %
23.08.2016 21:00 17,8 C 84 % 1025,3 hPa 0,0 l/m 0,0 km/h (0 Bft) N 0,00 h 0,000 mm 0,0 UV-I 0 W/m 15,0 C 17,8 C 0,0 km/h (0 Bft) 98,71 %
23.08.2016 22:00 16,9 C 87 % 1025,3 hPa 0,0 l/m 0,7 km/h (0 Bft) S 0,00 h 0,000 mm 0,0 UV-I 0 W/m 14,7 C 16,9 C 1,2 km/h (1 Bft) 98,26 %
23.08.2016 23:00 16,6 C 87 % 1025,3 hPa 0,0 l/m 0,8 km/h (0 Bft) S 0,00 h 0,000 mm 0,0 UV-I 0 W/m 14,4 C 16,6 C 1,9 km/h (1 Bft) 98,61 %
24.08.2016 00:00 15,5 C 91 % 1025,3 hPa 0,0 l/m 0,6 km/h (0 Bft) S 0,00 h 0,000 mm 0,0 UV-I 0 W/m 14,1 C 15,5 C 1,7 km/h (1 Bft) 98,36 %
24.08.2016 01:00 15,2 C 92 % 1025,1 hPa 0,0 l/m 0,7 km/h (0 Bft) S 0,00 h 0,000 mm 0,0 UV-I 0 W/m 13,9 C 15,2 C 1,7 km/h (1 Bft) 98,81 %
24.08.2016 02:00 14,6 C 93 % 1024,9 hPa 0,0 l/m 0,4 km/h (0 Bft) S 0,00 h 0,000 mm 0,0 UV-I 0 W/m 13,5 C 14,6 C 1,4 km/h (1 Bft) 98,10 %
24.08.2016 03:00 14,0 C 94 % 1024,6 hPa 0,0 l/m 0,3 km/h (0 Bft) S 0,00 h 0,000 mm 0,0 UV-I 0 W/m 13,0 C 14,0 C 0,9 km/h (0 Bft) 98,37 %
24.08.2016 04:00 13,4 C 94 % 1024,3 hPa 0,0 l/m 0,6 km/h (0 Bft) S 0,00 h 0,000 mm 0,0 UV-I 0 W/m 12,5 C 13,4 C 1,6 km/h (1 Bft) 97,69 %
24.08.2016 05:00 12,9 C 95 % 1024,1 hPa 0,0 l/m 0,5 km/h (0 Bft) S 0,00 h 0,000 mm 0,0 UV-I 0 W/m 12,1 C 12,9 C 1,1 km/h (1 Bft) 98,95 %
24.08.2016 06:00 12,7 C 95 % 1024,3 hPa 0,0 l/m 0,5 km/h (0 Bft) S 0,00 h 0,000 mm 0,0 UV-I 13 W/m 11,9 C 12,7 C 1,4 km/h (1 Bft) 98,45 %
24.08.2016 07:00 14,0 C 95 % 1024,7 hPa 0,0 l/m 2,7 km/h (1 Bft) NO 0,70 h 0,000 mm 0,4 UV-I 117 W/m 13,2 C 14,0 C 4,3 km/h (1 Bft) 98,36 %
24.08.2016 08:00 16,8 C 87 % 1024,7 hPa 0,0 l/m 6,3 km/h (2 Bft) NO 1,00 h 0,051 mm 0,9 UV-I 254 W/m 14,6 C 16,5 C 9,2 km/h (2 Bft) 97,94 %
24.08.2016 09:00 18,8 C 82 % 1024,6 hPa 0,0 l/m 9,3 km/h (2 Bft) NO 1,00 h 0,152 mm 2,1 UV-I 464 W/m 15,6 C 17,6 C 14,4 km/h (3 Bft) 98,93 %
24.08.2016 10:00 20,9 C 75 % 1024,4 hPa 0,0 l/m 11,0 km/h (2 Bft) NO 1,00 h 0,280 mm 3,5 UV-I 599 W/m 16,3 C 19,4 C 16,8 km/h (3 Bft) 98,23 %
24.08.2016 11:00 22,9 C 66 % 1024,0 hPa 0,0 l/m 12,0 km/h (2 Bft) NO 1,00 h 0,381 mm 4,8 UV-I 712 W/m 16,3 C 21,5 C 18,3 km/h (3 Bft) 98,85 %
24.08.2016 12:00 24,1 C 58 % 1023,6 hPa 0,0 l/m 12,9 km/h (3 Bft) O-NO 1,00 h 0,482 mm 5,7 UV-I 771 W/m 15,3 C 22,7 C 20,4 km/h (4 Bft) 98,07 %
24.08.2016 13:00 24,9 C 55 % 1023,2 hPa 0,0 l/m 15,5 km/h (3 Bft) O-NO 1,00 h 0,559 mm 5,8 UV-I 787 W/m 15,2 C 23,1 C 22,3 km/h (4 Bft) 99,56 %
24.08.2016 14:00 25,6 C 52 % 1022,8 hPa 0,0 l/m 15,3 km/h (3 Bft) O-NO 1,00 h 0,610 mm 5,1 UV-I 746 W/m 15,0 C 24,0 C 23,0 km/h (4 Bft) 97,57 %
24.08.2016 15:00 25,9 C 51 % 1022,2 hPa 0,0 l/m 16,9 km/h (3 Bft) NO 1,00 h 0,584 mm 3,8 UV-I 653 W/m 15,0 C 24,1 C 26,2 km/h (4 Bft) 98,79 %
24.08.2016 16:00 25,8 C 50 % 1021,9 hPa 0,0 l/m 17,4 km/h (3 Bft) NO 1,00 h 0,533 mm 2,4 UV-I 528 W/m 14,5 C 24,0 C 25,1 km/h (4 Bft) 97,94 %
24.08.2016 17:00 25,7 C 49 % 1021,8 hPa 0,0 l/m 15,6 km/h (3 Bft) O-NO 1,00 h 0,483 mm 1,2 UV-I 368 W/m 14,2 C 24,1 C 21,6 km/h (4 Bft) 99,16 %
24.08.2016 18:00 24,9 C 54 % 1021,6 hPa 0,0 l/m 12,0 km/h (2 Bft) O-NO 0,97 h 0,355 mm 0,6 UV-I 180 W/m 14,8 C 23,8 C 18,0 km/h (3 Bft) 97,59 %
24.08.2016 19:00 23,2 C 60 % 1021,4 hPa 0,0 l/m 8,0 km/h (2 Bft) O-NO 0,07 h 0,204 mm 0,0 UV-I 32 W/m 15,0 C 22,7 C 12,4 km/h (3 Bft) 99,49 %
24.08.2016 20:00 20,7 C 70 % 1021,6 hPa 0,0 l/m 6,2 km/h (2 Bft) O-NO 0,00 h 0,076 mm 0,0 UV-I 4 W/m 15,0 C 20,6 C 9,2 km/h (2 Bft) 98,13 %
24.08.2016 21:00 19,4 C 75 % 1021,7 hPa 0,0 l/m 5,6 km/h (1 Bft) O-NO 0,00 h 0,025 mm 0,0 UV-I 0 W/m 14,8 C 19,3 C 8,3 km/h (2 Bft) 99,30 %
24.08.2016 22:00 18,2 C 80 % 1021,6 hPa 0,0 l/m 3,5 km/h (1 Bft) O-NO 0,00 h 0,026 mm 0,0 UV-I 0 W/m 14,7 C 18,2 C 5,6 km/h (1 Bft) 98,08 %
24.08.2016 23:00 17,4 C 83 % 1021,7 hPa 0,0 l/m 3,7 km/h (1 Bft) O-NO 0,00 h 0,025 mm 0,0 UV-I 0 W/m 14,6 C 17,4 C 5,7 km/h (1 Bft) 98,74 %
25.08.2016 00:00 16,8 C 85 % 1021,5 hPa 0,0 l/m 6,7 km/h (2 Bft) O-NO 0,00 h 0,000 mm 0,0 UV-I 0 W/m 14,3 C 16,5 C 10,5 km/h (2 Bft) 97,70 %
25.08.2016 01:00 16,7 C 86 % 1021,3 hPa 0,0 l/m 9,5 km/h (2 Bft) O-NO 0,00 h 0,025 mm 0,0 UV-I 0 W/m 14,4 C 15,2 C 14,7 km/h (3 Bft) 99,31 %
25.08.2016 02:00 16,3 C 87 % 1021,0 hPa 0,0 l/m 8,5 km/h (2 Bft) O-NO 0,00 h 0,026 mm 0,0 UV-I 0 W/m 14,1 C 15,2 C 13,6 km/h (3 Bft) 97,64 %
25.08.2016 03:00 15,7 C 89 % 1020,7 hPa 0,0 l/m 7,2 km/h (2 Bft) O-NO 0,00 h 0,025 mm 0,0 UV-I 0 W/m 13,9 C 15,2 C 11,4 km/h (2 Bft) 99,43 %
25.08.2016 04:00 15,0 C 91 % 1020,4 hPa 0,0 l/m 8,4 km/h (2 Bft) O-NO 0,00 h 0,026 mm 0,0 UV-I 0 W/m 13,5 C 13,9 C 13,1 km/h (3 Bft) 97,43 %
25.08.2016 05:00 14,7 C 91 % 1020,2 hPa 0,0 l/m 11,2 km/h (2 Bft) O-NO 0,00 h 0,000 mm 0,0 UV-I 0 W/m 13,3 C 12,3 C 16,2 km/h (3 Bft) 99,28 %
25.08.2016 06:00 14,3 C 92 % 1020,3 hPa 0,0 l/m 9,8 km/h (2 Bft) O-NO 0,00 h 0,025 mm 0,0 UV-I 14 W/m 13,0 C 12,5 C 14,4 km/h (3 Bft) 97,72 %
25.08.2016 07:00 15,3 C 90 % 1020,4 hPa 0,0 l/m 8,8 km/h (2 Bft) NO 0,73 h 0,025 mm 0,4 UV-I 114 W/m 13,6 C 14,0 C 14,0 km/h (3 Bft) 99,07 %
25.08.2016 08:00 17,1 C 83 % 1020,3 hPa 0,0 l/m 13,7 km/h (3 Bft) O-NO 1,00 h 0,077 mm 0,9 UV-I 255 W/m 14,2 C 14,2 C 20,0 km/h (4 Bft) 98,23 %
25.08.2016 09:00 18,9 C 76 % 1020,1 hPa 0,0 l/m 17,9 km/h (3 Bft) O-NO 1,00 h 0,177 mm 2,0 UV-I 464 W/m 14,5 C 15,3 C 25,7 km/h (4 Bft) 98,64 %
25.08.2016 10:00 20,6 C 69 % 1019,9 hPa 0,0 l/m 20,9 km/h (4 Bft) O-NO 1,00 h 0,331 mm 3,4 UV-I 608 W/m 14,7 C 16,8 C 29,8 km/h (5 Bft) 98,27 %
25.08.2016 11:00 22,3 C 63 % 1019,7 hPa 0,0 l/m 20,6 km/h (4 Bft) O-NO 1,00 h 0,431 mm 4,7 UV-I 716 W/m 14,9 C 19,1 C 30,0 km/h (5 Bft) 98,73 %
25.08.2016 12:00 23,4 C 59 % 1019,3 hPa 0,0 l/m 22,1 km/h (4 Bft) O-NO 1,00 h 0,534 mm 5,6 UV-I 776 W/m 14,9 C 20,4 C 32,4 km/h (5 Bft) 97,98 %
25.08.2016 13:00 24,5 C 56 % 1019,0 hPa 0,0 l/m 20,8 km/h (4 Bft) O-NO 1,00 h 0,609 mm 5,6 UV-I 785 W/m 15,0 C 22,0 C 29,9 km/h (5 Bft) 98,08 %
25.08.2016 14:00 25,2 C 52 % 1018,6 hPa 0,0 l/m 22,2 km/h (4 Bft) O-NO 1,00 h 0,635 mm 5,0 UV-I 748 W/m 14,7 C 22,7 C 32,6 km/h (5 Bft) 98,81 %
25.08.2016 15:00 25,8 C 52 % 1018,2 hPa 0,0 l/m 21,3 km/h (4 Bft) O-NO 1,00 h 0,635 mm 3,7 UV-I 659 W/m 15,1 C 23,6 C 31,2 km/h (5 Bft) 98,45 %
25.08.2016 16:00 26,0 C 56 % 1017,9 hPa 0,0 l/m 20,6 km/h (4 Bft) O-NO 1,00 h 0,585 mm 2,3 UV-I 521 W/m 16,5 C 23,9 C 28,9 km/h (5 Bft) 98,67 %
25.08.2016 17:00 25,7 C 58 % 1017,5 hPa 0,0 l/m 20,0 km/h (4 Bft) O-NO 1,00 h 0,482 mm 1,1 UV-I 355 W/m 16,8 C 23,6 C 28,2 km/h (4 Bft) 97,86 %
25.08.2016 18:00 24,9 C 59 % 1017,1 hPa 0,0 l/m 18,4 km/h (3 Bft) NO 1,00 h 0,356 mm 0,5 UV-I 174 W/m 16,3 C 22,7 C 26,1 km/h (4 Bft) 99,06 %
25.08.2016 19:00 23,6 C 61 % 1017,3 hPa 0,0 l/m 17,0 km/h (3 Bft) O-NO 0,03 h 0,228 mm 0,0 UV-I 31 W/m 15,6 C 21,3 C 24,5 km/h (4 Bft) 97,54 %
25.08.2016 20:00 22,2 C 64 % 1017,7 hPa 0,0 l/m 17,0 km/h (3 Bft) NO 0,00 h 0,127 mm 0,0 UV-I 5 W/m 15,0 C 19,5 C 24,1 km/h (4 Bft) 98,87 %
25.08.2016 21:00 20,7 C 69 % 1017,7 hPa 0,0 l/m 12,7 km/h (3 Bft) O-NO 0,00 h 0,102 mm 0,0 UV-I 0 W/m 14,8 C 18,6 C 18,1 km/h (3 Bft) 98,29 %
25.08.2016 22:00 18,9 C 76 % 1017,6 hPa 0,0 l/m 5,7 km/h (1 Bft) NO 0,00 h 0,051 mm 0,0 UV-I 0 W/m 14,5 C 18,7 C 8,8 km/h (2 Bft) 99,05 %
25.08.2016 23:00 18,4 C 77 % 1017,6 hPa 0,0 l/m 8,6 km/h (2 Bft) O-NO 0,00 h 0,025 mm 0,0 UV-I 0 W/m 14,3 C 17,4 C 13,7 km/h (3 Bft) 97,16 %
26.08.2016 00:00 18,0 C 78 % 1017,3 hPa 0,0 l/m 10,1 km/h (2 Bft) O-NO 0,00 h 0,000 mm 0,0 UV-I 0 W/m 14,1 C 16,5 C 16,2 km/h (3 Bft) 98,77 %
26.08.2016 01:00 17,1 C 81 % 1017,1 hPa 0,0 l/m 7,1 km/h (2 Bft) O-NO 0,00 h 0,025 mm 0,0 UV-I 0 W/m 13,9 C 16,6 C 11,2 km/h (2 Bft) 97,65 %
26.08.2016 02:00 16,5 C 83 % 1017,0 hPa 0,0 l/m 6,0 km/h (2 Bft) O-NO 0,00 h 0,026 mm 0,0 UV-I 0 W/m 13,7 C 16,3 C 9,2 km/h (2 Bft) 98,61 %
26.08.2016 03:00 15,5 C 87 % 1017,0 hPa 0,0 l/m 3,5 km/h (1 Bft) O-NO 0,00 h 0,025 mm 0,0 UV-I 0 W/m 13,3 C 15,4 C 5,4 km/h (1 Bft) 97,67 %
26.08.2016 04:00 15,4 C 87 % 1016,9 hPa 0,0 l/m 7,6 km/h (2 Bft) O-NO 0,00 h 0,000 mm 0,0 UV-I 0 W/m 13,3 C 14,6 C 11,3 km/h (2 Bft) 99,15 %
26.08.2016 05:00 15,4 C 87 % 1017,0 hPa 0,0 l/m 10,3 km/h (2 Bft) O-NO 0,00 h 0,026 mm 0,0 UV-I 0 W/m 13,2 C 13,4 C 16,2 km/h (3 Bft) 97,51 %
26.08.2016 06:00 15,2 C 88 % 1017,3 hPa 0,0 l/m 6,1 km/h (2 Bft) O-NO 0,03 h 0,025 mm 0,0 UV-I 13 W/m 13,1 C 14,7 C 10,6 km/h (2 Bft) 98,99 %
26.08.2016 07:00 15,7 C 86 % 1017,6 hPa 0,0 l/m 7,3 km/h (2 Bft) O-NO 0,60 h 0,025 mm 0,3 UV-I 108 W/m 13,5 C 14,9 C 12,0 km/h (2 Bft) 97,59 %
26.08.2016 08:00 17,3 C 81 % 1017,8 hPa 0,0 l/m 13,8 km/h (3 Bft) O-NO 1,00 h 0,077 mm 0,9 UV-I 252 W/m 14,1 C 14,4 C 20,0 km/h (4 Bft) 99,01 %
26.08.2016 09:00 18,9 C 76 % 1017,9 hPa 0,0 l/m 11,5 km/h (2 Bft) O-NO 1,00 h 0,177 mm 2,0 UV-I 461 W/m 14,6 C 17,0 C 16,7 km/h (3 Bft) 97,79 %
26.08.2016 10:00 20,8 C 72 % 1018,1 hPa 0,0 l/m 6,2 km/h (2 Bft) NO 1,00 h 0,305 mm 3,4 UV-I 601 W/m 15,6 C 20,6 C 11,2 km/h (2 Bft) 99,30 %
26.08.2016 11:00 22,7 C 67 % 1018,0 hPa 0,0 l/m 6,7 km/h (2 Bft) NO 1,00 h 0,381 mm 4,7 UV-I 706 W/m 16,3 C 22,4 C 12,0 km/h (2 Bft) 97,80 %
26.08.2016 12:00 24,2 C 63 % 1017,9 hPa 0,0 l/m 6,5 km/h (2 Bft) NO 1,00 h 0,457 mm 5,6 UV-I 764 W/m 16,7 C 24,0 C 12,0 km/h (2 Bft) 99,31 %
26.08.2016 13:00 25,4 C 58 % 1017,7 hPa 0,0 l/m 7,4 km/h (2 Bft) NO 1,00 h 0,508 mm 5,6 UV-I 771 W/m 16,5 C 25,1 C 12,9 km/h (3 Bft) 98,01 %
26.08.2016 14:00 26,5 C 54 % 1017,6 hPa 0,0 l/m 7,0 km/h (2 Bft) NO 1,00 h 0,534 mm 4,9 UV-I 729 W/m 16,3 C 26,3 C 11,6 km/h (2 Bft) 99,30 %
26.08.2016 15:00 27,3 C 52 % 1017,3 hPa 0,0 l/m 6,5 km/h (2 Bft) NO 1,00 h 0,508 mm 3,6 UV-I 638 W/m 16,7 C 27,2 C 10,9 km/h (2 Bft) 97,59 %
26.08.2016 16:00 27,6 C 52 % 1017,1 hPa 0,0 l/m 6,5 km/h (2 Bft) O-NO 1,00 h 0,457 mm 2,3 UV-I 508 W/m 16,8 C 27,5 C 11,1 km/h (2 Bft) 98,94 %
26.08.2016 17:00 27,6 C 52 % 1016,8 hPa 0,0 l/m 7,5 km/h (2 Bft) NO 1,00 h 0,381 mm 1,1 UV-I 349 W/m 16,7 C 27,4 C 11,9 km/h (2 Bft) 97,78 %
26.08.2016 18:00 27,1 C 54 % 1016,7 hPa 0,0 l/m 6,9 km/h (2 Bft) NO 0,97 h 0,279 mm 0,5 UV-I 168 W/m 17,0 C 26,9 C 10,5 km/h (2 Bft) 99,08 %
26.08.2016 19:00 24,8 C 64 % 1016,8 hPa 0,0 l/m 2,6 km/h (1 Bft) NO 0,03 h 0,153 mm 0,0 UV-I 27 W/m 17,6 C 24,8 C 4,5 km/h (1 Bft) 97,85 %
26.08.2016 20:00 22,5 C 72 % 1017,2 hPa 0,0 l/m 1,9 km/h (1 Bft) NO 0,00 h 0,025 mm 0,0 UV-I 3 W/m 17,2 C 22,5 C 3,4 km/h (1 Bft) 99,13 %
26.08.2016 21:00 21,4 C 75 % 1017,4 hPa 0,0 l/m 4,7 km/h (1 Bft) O-NO 0,00 h 0,026 mm 0,0 UV-I 0 W/m 16,7 C 21,2 C 7,6 km/h (2 Bft) 97,80 %
26.08.2016 22:00 21,1 C 72 % 1017,5 hPa 0,0 l/m 8,5 km/h (2 Bft) O-NO 0,00 h 0,025 mm 0,0 UV-I 0 W/m 16,0 C 20,4 C 13,3 km/h (3 Bft) 99,01 %
26.08.2016 23:00 20,0 C 75 % 1017,6 hPa 0,0 l/m 5,1 km/h (1 Bft) O-NO 0,00 h 0,051 mm 0,0 UV-I 0 W/m 15,4 C 19,7 C 8,4 km/h (2 Bft) 98,03 %
27.08.2016 00:00 18,6 C 80 % 1017,7 hPa 0,0 l/m 2,2 km/h (1 Bft) O-NO 0,00 h 0,000 mm 0,0 UV-I 0 W/m 15,2 C 18,6 C 3,5 km/h (1 Bft) 99,13 %
27.08.2016 01:00 17,5 C 84 % 1017,8 hPa 0,0 l/m 1,5 km/h (1 Bft) O-NO 0,00 h 0,000 mm 0,0 UV-I 0 W/m 14,8 C 17,5 C 2,6 km/h (1 Bft) 97,67 %
27.08.2016 02:00 15,8 C 90 % 1017,9 hPa 0,0 l/m 0,7 km/h (0 Bft) O-NO 0,00 h 0,000 mm 0,0 UV-I 0 W/m 14,1 C 15,8 C 1,7 km/h (1 Bft) 99,30 %
27.08.2016 03:00 15,3 C 91 % 1018,3 hPa 0,0 l/m 0,4 km/h (0 Bft) O-NO 0,00 h 0,000 mm 0,0 UV-I 0 W/m 13,9 C 15,3 C 1,1 km/h (0 Bft) 97,34 %
27.08.2016 04:00 14,8 C 93 % 1018,4 hPa 0,0 l/m 0,6 km/h (0 Bft) O-NO 0,00 h 0,000 mm 0,0 UV-I 0 W/m 13,7 C 14,8 C 1,3 km/h (1 Bft) 99,41 %
27.08.2016 05:00 14,4 C 93 % 1018,2 hPa 0,0 l/m 0,2 km/h (0 Bft) N 0,00 h 0,000 mm 0,0 UV-I 0 W/m 13,4 C 14,4 C 0,5 km/h (0 Bft) 97,02 %
27.08.2016 06:00 14,1 C 95 % 1018,2 hPa 0,0 l/m 0,4 km/h (0 Bft) O-NO 0,03 h 0,000 mm 0,0 UV-I 15 W/m 13,2 C 14,1 C 0,9 km/h (0 Bft) 99,40 %
27.08.2016 07:00 15,0 C 96 % 1018,5 hPa 0,0 l/m 2,7 km/h (1 Bft) NO 0,00 h 0,000 mm 0,0 UV-I 78 W/m 14,3 C 15,0 C 4,4 km/h (1 Bft) 97,16 %
27.08.2016 08:00 16,6 C 94 % 1018,4 hPa 0,0 l/m 4,5 km/h (1 Bft) O-NO 0,60 h 0,051 mm 0,9 UV-I 218 W/m 15,5 C 16,6 C 6,9 km/h (2 Bft) 99,50 %
27.08.2016 09:00 19,3 C 85 % 1018,6 hPa 0,0 l/m 6,2 km/h (2 Bft) O-NO 1,00 h 0,127 mm 1,9 UV-I 445 W/m 16,7 C 19,2 C 9,4 km/h (2 Bft) 97,95 %
27.08.2016 10:00 21,4 C 80 % 1018,6 hPa 0,0 l/m 5,7 km/h (1 Bft) O-NO 1,00 h 0,254 mm 3,3 UV-I 589 W/m 17,8 C 21,3 C 9,9 km/h (2 Bft) 99,23 %
27.08.2016 11:00 23,3 C 74 % 1018,3 hPa 0,0 l/m 6,1 km/h (2 Bft) O-NO 1,00 h 0,355 mm 4,6 UV-I 699 W/m 18,3 C 23,1 C 10,7 km/h (2 Bft) 98,14 %
27.08.2016 12:00 25,1 C 68 % 1017,9 hPa 0,0 l/m 7,7 km/h (2 Bft) O-NO 1,00 h 0,458 mm 5,5 UV-I 763 W/m 18,7 C 24,8 C 13,0 km/h (3 Bft) 99,24 %
27.08.2016 13:00 26,6 C 61 % 1017,5 hPa 0,0 l/m 7,8 km/h (2 Bft) O-NO 1,00 h 0,508 mm 5,6 UV-I 777 W/m 18,4 C 26,3 C 13,0 km/h (3 Bft) 97,64 %
27.08.2016 14:00 28,0 C 52 % 1017,2 hPa 0,0 l/m 7,7 km/h (2 Bft) O-NO 1,00 h 0,533 mm 4,9 UV-I 740 W/m 17,3 C 27,8 C 12,8 km/h (3 Bft) 99,25 %
27.08.2016 15:00 28,9 C 46 % 1016,7 hPa 0,0 l/m 8,6 km/h (2 Bft) NO 1,00 h 0,533 mm 3,7 UV-I 654 W/m 16,0 C 28,7 C 14,7 km/h (3 Bft) 97,73 %
27.08.2016 16:00 29,2 C 45 % 1016,2 hPa 0,0 l/m 9,9 km/h (2 Bft) O-NO 1,00 h 0,508 mm 2,3 UV-I 521 W/m 16,0 C 28,8 C 15,4 km/h (3 Bft) 98,97 %
27.08.2016 17:00 29,0 C 46 % 1015,9 hPa 0,0 l/m 10,7 km/h (2 Bft) O-NO 1,00 h 0,432 mm 1,1 UV-I 358 W/m 16,0 C 28,6 C 16,0 km/h (3 Bft) 97,74 %
27.08.2016 18:00 27,8 C 53 % 1015,5 hPa 0,0 l/m 11,4 km/h (2 Bft) O-NO 1,00 h 0,330 mm 0,5 UV-I 168 W/m 17,3 C 27,1 C 16,8 km/h (3 Bft) 99,02 %
27.08.2016 19:00 25,3 C 65 % 1015,4 hPa 0,0 l/m 3,9 km/h (1 Bft) O-NO 0,03 h 0,204 mm 0,0 UV-I 25 W/m 18,1 C 25,3 C 6,1 km/h (2 Bft) 98,15 %
27.08.2016 20:00 23,0 C 75 % 1015,4 hPa 0,0 l/m 3,0 km/h (1 Bft) O-NO 0,00 h 0,050 mm 0,0 UV-I 0 W/m 18,2 C 23,0 C 4,8 km/h (1 Bft) 98,72 %
27.08.2016 21:00 22,2 C 79 % 1015,5 hPa 0,0 l/m 3,8 km/h (1 Bft) O-NO 0,00 h 0,026 mm 0,0 UV-I 0 W/m 18,3 C 22,2 C 5,6 km/h (1 Bft) 98,43 %
27.08.2016 22:00 21,5 C 81 % 1015,4 hPa 0,0 l/m 5,5 km/h (1 Bft) O-NO 0,00 h 0,025 mm 0,0 UV-I 0 W/m 18,1 C 21,4 C 8,4 km/h (2 Bft) 98,89 %
27.08.2016 23:00 20,5 C 83 % 1015,5 hPa 0,0 l/m 1,8 km/h (1 Bft) O-NO 0,00 h 0,026 mm 0,0 UV-I 0 W/m 17,5 C 20,5 C 3,1 km/h (1 Bft) 98,14 %
28.08.2016 00:00 19,1 C 87 % 1015,4 hPa 0,0 l/m 0,7 km/h (0 Bft) O-NO 0,00 h 0,000 mm 0,0 UV-I 0 W/m 16,9 C 19,1 C 1,4 km/h (1 Bft) 98,72 %
28.08.2016 01:00 17,6 C 92 % 1015,3 hPa 0,0 l/m 1,0 km/h (0 Bft) O-NO 0,00 h 0,000 mm 0,0 UV-I 0 W/m 16,2 C 17,6 C 1,9 km/h (1 Bft) 98,13 %
28.08.2016 02:00 17,0 C 94 % 1015,1 hPa 0,0 l/m 1,8 km/h (1 Bft) S-SO 0,00 h 0,000 mm 0,0 UV-I 0 W/m 16,0 C 17,0 C 3,6 km/h (1 Bft) 98,90 %
28.08.2016 03:00 16,5 C 95 % 1015,1 hPa 0,0 l/m 1,9 km/h (1 Bft) S 0,00 h 0,000 mm 0,0 UV-I 0 W/m 15,6 C 16,5 C 3,5 km/h (1 Bft) 98,10 %
28.08.2016 04:00 16,3 C 95 % 1015,1 hPa 0,0 l/m 1,0 km/h (0 Bft) S-SW 0,00 h 0,000 mm 0,0 UV-I 0 W/m 15,5 C 16,3 C 2,2 km/h (1 Bft) 98,87 %
28.08.2016 05:00 15,9 C 95 % 1015,0 hPa 0,0 l/m 0,7 km/h (0 Bft) S 0,00 h 0,000 mm 0,0 UV-I 0 W/m 15,2 C 15,9 C 1,8 km/h (1 Bft) 98,22 %
28.08.2016 06:00 15,7 C 96 % 1015,1 hPa 0,0 l/m 1,2 km/h (1 Bft) S 0,03 h 0,000 mm 0,0 UV-I 16 W/m 15,0 C 15,7 C 2,3 km/h (1 Bft) 99,02 %
28.08.2016 07:00 16,8 C 96 % 1015,6 hPa 0,0 l/m 0,3 km/h (0 Bft) S 0,13 h 0,000 mm 0,0 UV-I 89 W/m 16,1 C 16,8 C 1,3 km/h (1 Bft) 97,45 %
28.08.2016 08:00 18,6 C 91 % 1016,0 hPa 0,0 l/m 0,9 km/h (0 Bft) S 0,80 h 0,051 mm 0,8 UV-I 217 W/m 17,2 C 18,6 C 2,5 km/h (1 Bft) 98,94 %
28.08.2016 09:00 20,8 C 86 % 1016,2 hPa 0,0 l/m 1,6 km/h (1 Bft) S 1,00 h 0,127 mm 1,8 UV-I 425 W/m 18,3 C 20,8 C 3,7 km/h (1 Bft) 97,58 %
28.08.2016 10:00 23,1 C 79 % 1016,4 hPa 0,0 l/m 2,2 km/h (1 Bft) W 1,00 h 0,254 mm 3,1 UV-I 560 W/m 19,2 C 23,1 C 4,7 km/h (1 Bft) 99,09 %
28.08.2016 11:00 24,9 C 73 % 1016,3 hPa 0,0 l/m 2,3 km/h (1 Bft) NW 1,00 h 0,355 mm 4,2 UV-I 665 W/m 19,8 C 24,9 C 5,1 km/h (1 Bft) 98,24 %
28.08.2016 12:00 26,5 C 70 % 1015,8 hPa 0,0 l/m 2,9 km/h (1 Bft) NO 1,00 h 0,432 mm 5,0 UV-I 720 W/m 20,5 C 26,5 C 5,7 km/h (1 Bft) 98,83 %
28.08.2016 13:00 28,4 C 64 % 1015,4 hPa 0,0 l/m 2,7 km/h (1 Bft) W-NW 1,00 h 0,483 mm 4,9 UV-I 727 W/m 21,0 C 28,4 C 5,5 km/h (1 Bft) 98,63 %
28.08.2016 14:00 29,8 C 59 % 1014,8 hPa 0,0 l/m 4,3 km/h (1 Bft) W 1,00 h 0,482 mm 4,2 UV-I 677 W/m 20,9 C 29,8 C 8,4 km/h (2 Bft) 98,66 %
28.08.2016 15:00 30,4 C 54 % 1014,2 hPa 0,0 l/m 3,8 km/h (1 Bft) W 0,87 h 0,483 mm 3,0 UV-I 542 W/m 20,0 C 30,4 C 7,9 km/h (2 Bft) 98,38 %
28.08.2016 16:00 30,8 C 52 % 1013,7 hPa 0,0 l/m 2,6 km/h (1 Bft) SO 0,97 h 0,381 mm 1,9 UV-I 450 W/m 19,8 C 30,8 C 5,5 km/h (1 Bft) 98,69 %
28.08.2016 17:00 30,6 C 52 % 1013,3 hPa 0,0 l/m 2,4 km/h (1 Bft) N-NW 1,00 h 0,330 mm 0,9 UV-I 308 W/m 19,5 C 30,6 C 5,0 km/h (1 Bft) 98,58 %
28.08.2016 18:00 29,9 C 55 % 1013,0 hPa 0,0 l/m 1,1 km/h (1 Bft) N-NO 0,73 h 0,229 mm 0,4 UV-I 140 W/m 19,8 C 29,9 C 2,6 km/h (1 Bft) 98,09 %
28.08.2016 19:00 27,2 C 70 % 1012,8 hPa 0,0 l/m 0,2 km/h (0 Bft) N 0,00 h 0,101 mm 0,0 UV-I 24 W/m 21,3 C 27,2 C 0,9 km/h (0 Bft) 99,17 %
28.08.2016 20:00 24,3 C 80 % 1013,0 hPa 0,0 l/m 1,1 km/h (1 Bft) N-NO 0,00 h 0,026 mm 0,0 UV-I 0 W/m 20,5 C 24,3 C 2,3 km/h (1 Bft) 97,51 %
28.08.2016 21:00 23,2 C 83 % 1013,5 hPa 0,0 l/m 2,2 km/h (1 Bft) SW 0,00 h 0,000 mm 0,0 UV-I 0 W/m 20,0 C 23,2 C 3,6 km/h (1 Bft) 99,00 %
28.08.2016 22:00 22,5 C 84 % 1013,5 hPa 0,0 l/m 4,0 km/h (1 Bft) S 0,00 h 0,000 mm 0,0 UV-I 0 W/m 19,6 C 22,5 C 6,0 km/h (2 Bft) 98,16 %
28.08.2016 23:00 22,1 C 81 % 1014,0 hPa 0,0 l/m 5,6 km/h (1 Bft) S-SW 0,00 h 0,025 mm 0,0 UV-I 0 W/m 18,8 C 22,0 C 8,3 km/h (2 Bft) 99,21 %
Min-Datum _ 23.08.16 27.08.16 28.08.16 - 23.08.16 - - - - - 23.08.16 22.08.16 23.08.16 25.08.16
_ Min-Zeit 05:16 16:12 19:32 - 03:46 - - - - - 05:16 05:00 03:46 09:58
Minimum _ 11,4 C 38 % 1012,7 hPa - 0,0 km/h (0 Bft) - - - - - 10,5 C 9,4 C 0,0 km/h (0 Bft) 86,84 %
Max-Datum _ 28.08.16 27.08.16 23.08.16 22.08.16 25.08.16 - 22.08.16 25.08.16 23.08.16 22.08.16 28.08.16 28.08.16 25.08.16 22.08.16
_ Max-Zeit 16:50 08:00 09:52 00:00 16:12 - 09:08 14:00 13:20 13:16 19:10 16:20 11:08 00:00
Maximum _ 31,0 C 97 % 1028,5 hPa 0,0 l/m 27,9 km/h
O-NO (4 Bft)
- 0,03 h 0,635 mm 6,3 UV-I 1035 W/m 21,9 C 30,9 C 40,2 km/h
O-NO (6 Bft)
100,00 %
Durchschnitt _ 19,8 C 75 % 1020,6 hPa #0,0 l/m 6,7 km/h (2 Bft) O-NO #70:20 h #29,693 mm 2,9 UV-I 390 W/m 14,9 C 19,2 C 10,7 km/h (2 Bft) 98,51 %